sensor_id;sensor_type;location;lat;lon;timestamp;P1;durP1;ratioP1;P2;durP2;ratioP2
75718;SDS011;64340;48.534;-3.036;2022-12-26T00:01:34;2.92;;;0.80;;
75718;SDS011;64340;48.534;-3.036;2022-12-26T00:04:00;3.60;;;0.90;;
75718;SDS011;64340;48.534;-3.036;2022-12-26T00:06:27;3.70;;;0.90;;
75718;SDS011;64340;48.534;-3.036;2022-12-26T00:08:54;4.07;;;0.85;;
75718;SDS011;64340;48.534;-3.036;2022-12-26T00:11:21;4.57;;;1.30;;
75718;SDS011;64340;48.534;-3.036;2022-12-26T00:13:52;4.10;;;0.98;;
75718;SDS011;64340;48.534;-3.036;2022-12-26T00:16:23;3.22;;;1.08;;
75718;SDS011;64340;48.534;-3.036;2022-12-26T00:18:50;4.97;;;1.20;;
75718;SDS011;64340;48.534;-3.036;2022-12-26T00:21:17;3.03;;;0.70;;
75718;SDS011;64340;48.534;-3.036;2022-12-26T00:23:44;3.65;;;1.20;;
75718;SDS011;64340;48.534;-3.036;2022-12-26T00:26:11;2.67;;;1.08;;
75718;SDS011;64340;48.534;-3.036;2022-12-26T00:28:39;5.28;;;1.20;;
75718;SDS011;64340;48.534;-3.036;2022-12-26T00:31:05;2.42;;;0.63;;
75718;SDS011;64340;48.534;-3.036;2022-12-26T00:33:39;4.50;;;1.20;;
75718;SDS011;64340;48.534;-3.036;2022-12-26T00:36:08;4.00;;;0.82;;
75718;SDS011;64340;48.534;-3.036;2022-12-26T00:38:39;4.40;;;0.70;;
75718;SDS011;64340;48.534;-3.036;2022-12-26T00:41:06;3.70;;;0.70;;
75718;SDS011;64340;48.534;-3.036;2022-12-26T00:43:34;2.47;;;0.95;;
75718;SDS011;64340;48.534;-3.036;2022-12-26T00:46:00;3.53;;;0.93;;
75718;SDS011;64340;48.534;-3.036;2022-12-26T00:48:26;1.95;;;0.60;;
75718;SDS011;64340;48.534;-3.036;2022-12-26T00:50:52;2.58;;;0.40;;
75718;SDS011;64340;48.534;-3.036;2022-12-26T00:53:18;2.60;;;0.57;;
75718;SDS011;64340;48.534;-3.036;2022-12-26T00:55:44;2.17;;;0.80;;
75718;SDS011;64340;48.534;-3.036;2022-12-26T00:58:10;3.88;;;0.75;;
75718;SDS011;64340;48.534;-3.036;2022-12-26T01:00:36;3.55;;;0.75;;
75718;SDS011;64340;48.534;-3.036;2022-12-26T01:03:02;2.15;;;0.68;;
75718;SDS011;64340;48.534;-3.036;2022-12-26T01:05:31;2.88;;;1.40;;
75718;SDS011;64340;48.534;-3.036;2022-12-26T01:07:57;2.33;;;0.43;;
75718;SDS011;64340;48.534;-3.036;2022-12-26T01:10:23;2.42;;;0.80;;
75718;SDS011;64340;48.534;-3.036;2022-12-26T01:12:49;5.05;;;0.80;;
75718;SDS011;64340;48.534;-3.036;2022-12-26T01:15:15;6.30;;;0.63;;
75718;SDS011;64340;48.534;-3.036;2022-12-26T01:17:40;2.72;;;0.70;;
75718;SDS011;64340;48.534;-3.036;2022-12-26T01:20:06;2.97;;;0.85;;
75718;SDS011;64340;48.534;-3.036;2022-12-26T01:22:32;2.15;;;0.60;;
75718;SDS011;64340;48.534;-3.036;2022-12-26T01:24:58;2.83;;;0.52;;
75718;SDS011;64340;48.534;-3.036;2022-12-26T01:27:24;4.15;;;0.90;;
75718;SDS011;64340;48.534;-3.036;2022-12-26T01:29:51;3.33;;;0.70;;
75718;SDS011;64340;48.534;-3.036;2022-12-26T01:32:20;1.80;;;0.85;;
75718;SDS011;64340;48.534;-3.036;2022-12-26T01:34:47;2.80;;;0.70;;
75718;SDS011;64340;48.534;-3.036;2022-12-26T01:37:14;3.42;;;0.50;;
75718;SDS011;64340;48.534;-3.036;2022-12-26T01:39:40;2.25;;;0.63;;
75718;SDS011;64340;48.534;-3.036;2022-12-26T01:42:13;3.83;;;0.65;;
75718;SDS011;64340;48.534;-3.036;2022-12-26T01:50:03;3.58;;;0.95;;
75718;SDS011;64340;48.534;-3.036;2022-12-26T01:52:34;4.07;;;0.68;;
75718;SDS011;64340;48.534;-3.036;2022-12-26T01:55:04;2.15;;;0.60;;
75718;SDS011;64340;48.534;-3.036;2022-12-26T01:57:37;3.08;;;0.60;;
75718;SDS011;64340;48.534;-3.036;2022-12-26T02:00:07;2.63;;;0.50;;
75718;SDS011;64340;48.534;-3.036;2022-12-26T02:02:33;2.47;;;0.52;;
75718;SDS011;64340;48.534;-3.036;2022-12-26T02:05:20;2.42;;;0.50;;
75718;SDS011;64340;48.534;-3.036;2022-12-26T02:08:00;2.17;;;0.80;;
75718;SDS011;64340;48.534;-3.036;2022-12-26T02:10:33;1.60;;;0.30;;
75718;SDS011;64340;48.534;-3.036;2022-12-26T02:13:04;2.70;;;0.60;;
75718;SDS011;64340;48.534;-3.036;2022-12-26T02:15:30;4.07;;;0.90;;
75718;SDS011;64340;48.534;-3.036;2022-12-26T02:17:56;1.73;;;0.63;;
75718;SDS011;64340;48.534;-3.036;2022-12-26T02:20:23;2.60;;;0.50;;
75718;SDS011;64340;48.534;-3.036;2022-12-26T02:36:49;3.40;;;0.52;;
75718;SDS011;64340;48.534;-3.036;2022-12-26T02:42:26;1.70;;;0.50;;
75718;SDS011;64340;48.534;-3.036;2022-12-26T02:50:35;2.40;;;0.60;;
75718;SDS011;64340;48.534;-3.036;2022-12-26T02:53:59;2.75;;;0.47;;
75718;SDS011;64340;48.534;-3.036;2022-12-26T02:56:46;2.42;;;0.43;;
75718;SDS011;64340;48.534;-3.036;2022-12-26T03:02:45;2.30;;;0.45;;
75718;SDS011;64340;48.534;-3.036;2022-12-26T03:05:39;4.43;;;0.65;;
75718;SDS011;64340;48.534;-3.036;2022-12-26T03:08:32;1.33;;;0.40;;
75718;SDS011;64340;48.534;-3.036;2022-12-26T03:11:22;2.33;;;0.60;;
75718;SDS011;64340;48.534;-3.036;2022-12-26T03:14:16;3.50;;;0.60;;
75718;SDS011;64340;48.534;-3.036;2022-12-26T03:16:46;1.77;;;0.43;;
75718;SDS011;64340;48.534;-3.036;2022-12-26T03:19:36;1.38;;;0.32;;
75718;SDS011;64340;48.534;-3.036;2022-12-26T03:22:22;2.92;;;0.52;;
75718;SDS011;64340;48.534;-3.036;2022-12-26T03:24:54;1.75;;;0.40;;
75718;SDS011;64340;48.534;-3.036;2022-12-26T03:27:41;1.67;;;0.32;;
75718;SDS011;64340;48.534;-3.036;2022-12-26T03:30:08;1.30;;;0.38;;
75718;SDS011;64340;48.534;-3.036;2022-12-26T03:32:56;3.22;;;0.50;;
75718;SDS011;64340;48.534;-3.036;2022-12-26T03:35:22;3.83;;;0.52;;
75718;SDS011;64340;48.534;-3.036;2022-12-26T03:37:55;2.42;;;0.60;;
75718;SDS011;64340;48.534;-3.036;2022-12-26T03:49:33;1.58;;;0.73;;
75718;SDS011;64340;48.534;-3.036;2022-12-26T03:53:23;1.52;;;0.30;;
75718;SDS011;64340;48.534;-3.036;2022-12-26T04:01:59;1.88;;;0.30;;
75718;SDS011;64340;48.534;-3.036;2022-12-26T04:04:47;1.85;;;0.47;;
75718;SDS011;64340;48.534;-3.036;2022-12-26T04:07:35;1.35;;;0.40;;
75718;SDS011;64340;48.534;-3.036;2022-12-26T04:10:26;2.30;;;0.35;;
75718;SDS011;64340;48.534;-3.036;2022-12-26T04:13:21;3.13;;;0.85;;
75718;SDS011;64340;48.534;-3.036;2022-12-26T04:16:13;1.77;;;0.22;;
75718;SDS011;64340;48.534;-3.036;2022-12-26T04:21:51;3.78;;;0.60;;
75718;SDS011;64340;48.534;-3.036;2022-12-26T04:25:13;1.95;;;0.38;;
75718;SDS011;64340;48.534;-3.036;2022-12-26T04:28:01;3.90;;;0.40;;
75718;SDS011;64340;48.534;-3.036;2022-12-26T04:30:47;1.98;;;0.30;;
75718;SDS011;64340;48.534;-3.036;2022-12-26T04:33:41;1.92;;;0.50;;
75718;SDS011;64340;48.534;-3.036;2022-12-26T04:36:36;1.02;;;0.32;;
75718;SDS011;64340;48.534;-3.036;2022-12-26T04:39:28;1.73;;;0.20;;
75718;SDS011;64340;48.534;-3.036;2022-12-26T04:42:16;2.55;;;0.32;;
75718;SDS011;64340;48.534;-3.036;2022-12-26T04:45:03;2.17;;;0.30;;
75718;SDS011;64340;48.534;-3.036;2022-12-26T04:47:31;2.28;;;0.32;;
75718;SDS011;64340;48.534;-3.036;2022-12-26T04:49:57;1.55;;;0.40;;
75718;SDS011;64340;48.534;-3.036;2022-12-26T04:52:39;1.10;;;0.30;;
75718;SDS011;64340;48.534;-3.036;2022-12-26T04:55:31;5.47;;;0.50;;
75718;SDS011;64340;48.534;-3.036;2022-12-26T04:57:59;1.95;;;0.40;;
75718;SDS011;64340;48.534;-3.036;2022-12-26T05:00:26;1.35;;;0.38;;
75718;SDS011;64340;48.534;-3.036;2022-12-26T05:02:53;2.47;;;0.40;;
75718;SDS011;64340;48.534;-3.036;2022-12-26T05:05:39;2.63;;;0.35;;
75718;SDS011;64340;48.534;-3.036;2022-12-26T05:11:16;1.77;;;0.40;;
75718;SDS011;64340;48.534;-3.036;2022-12-26T05:13:42;4.03;;;0.55;;
75718;SDS011;64340;48.534;-3.036;2022-12-26T05:16:07;2.05;;;0.40;;
75718;SDS011;64340;48.534;-3.036;2022-12-26T05:18:52;3.03;;;0.80;;
75718;SDS011;64340;48.534;-3.036;2022-12-26T05:21:36;1.30;;;0.28;;
75718;SDS011;64340;48.534;-3.036;2022-12-26T05:24:21;2.55;;;0.77;;
75718;SDS011;64340;48.534;-3.036;2022-12-26T05:27:08;3.05;;;0.57;;
75718;SDS011;64340;48.534;-3.036;2022-12-26T05:29:56;2.40;;;0.45;;
75718;SDS011;64340;48.534;-3.036;2022-12-26T05:32:22;3.10;;;0.43;;
75718;SDS011;64340;48.534;-3.036;2022-12-26T05:35:06;3.83;;;0.43;;
75718;SDS011;64340;48.534;-3.036;2022-12-26T05:37:33;2.22;;;0.55;;
75718;SDS011;64340;48.534;-3.036;2022-12-26T05:39:59;0.85;;;0.17;;
75718;SDS011;64340;48.534;-3.036;2022-12-26T05:42:25;1.20;;;0.30;;
75718;SDS011;64340;48.534;-3.036;2022-12-26T05:44:51;3.95;;;0.43;;
75718;SDS011;64340;48.534;-3.036;2022-12-26T05:47:16;2.63;;;0.50;;
75718;SDS011;64340;48.534;-3.036;2022-12-26T05:49:42;2.25;;;0.40;;
75718;SDS011;64340;48.534;-3.036;2022-12-26T05:52:08;2.05;;;0.38;;
75718;SDS011;64340;48.534;-3.036;2022-12-26T05:54:34;2.08;;;0.40;;
75718;SDS011;64340;48.534;-3.036;2022-12-26T05:56:59;3.20;;;0.52;;
75718;SDS011;64340;48.534;-3.036;2022-12-26T05:59:25;2.17;;;0.30;;
75718;SDS011;64340;48.534;-3.036;2022-12-26T06:01:51;3.25;;;0.40;;
75718;SDS011;64340;48.534;-3.036;2022-12-26T06:04:17;2.92;;;0.50;;
75718;SDS011;64340;48.534;-3.036;2022-12-26T06:06:43;3.55;;;0.40;;
75718;SDS011;64340;48.534;-3.036;2022-12-26T06:09:09;2.47;;;0.40;;
75718;SDS011;64340;48.534;-3.036;2022-12-26T06:11:34;3.33;;;0.50;;
75718;SDS011;64340;48.534;-3.036;2022-12-26T06:14:00;2.50;;;0.40;;
75718;SDS011;64340;48.534;-3.036;2022-12-26T06:16:26;3.45;;;0.55;;
75718;SDS011;64340;48.534;-3.036;2022-12-26T06:18:55;1.90;;;0.20;;
75718;SDS011;64340;48.534;-3.036;2022-12-26T06:21:21;2.63;;;0.40;;
75718;SDS011;64340;48.534;-3.036;2022-12-26T06:23:48;1.98;;;0.30;;
75718;SDS011;64340;48.534;-3.036;2022-12-26T06:26:15;3.88;;;1.10;;
75718;SDS011;64340;48.534;-3.036;2022-12-26T06:28:42;2.03;;;0.47;;
75718;SDS011;64340;48.534;-3.036;2022-12-26T06:31:09;3.20;;;0.30;;
75718;SDS011;64340;48.534;-3.036;2022-12-26T06:33:40;4.15;;;0.35;;
75718;SDS011;64340;48.534;-3.036;2022-12-26T06:36:07;4.35;;;0.60;;
75718;SDS011;64340;48.534;-3.036;2022-12-26T06:38:35;3.10;;;0.40;;
75718;SDS011;64340;48.534;-3.036;2022-12-26T06:41:03;3.83;;;0.95;;
75718;SDS011;64340;48.534;-3.036;2022-12-26T06:43:29;1.63;;;0.30;;
75718;SDS011;64340;48.534;-3.036;2022-12-26T06:45:55;2.15;;;0.40;;
75718;SDS011;64340;48.534;-3.036;2022-12-26T06:48:22;5.22;;;0.63;;
75718;SDS011;64340;48.534;-3.036;2022-12-26T06:50:48;2.08;;;0.47;;
75718;SDS011;64340;48.534;-3.036;2022-12-26T06:53:14;2.15;;;0.40;;
75718;SDS011;64340;48.534;-3.036;2022-12-26T06:55:40;3.13;;;0.60;;
75718;SDS011;64340;48.534;-3.036;2022-12-26T06:58:06;4.15;;;0.50;;
75718;SDS011;64340;48.534;-3.036;2022-12-26T07:00:31;2.97;;;0.43;;
75718;SDS011;64340;48.534;-3.036;2022-12-26T07:02:57;2.42;;;0.47;;
75718;SDS011;64340;48.534;-3.036;2022-12-26T07:05:23;2.13;;;0.57;;
75718;SDS011;64340;48.534;-3.036;2022-12-26T07:07:49;2.53;;;0.40;;
75718;SDS011;64340;48.534;-3.036;2022-12-26T07:10:16;2.50;;;0.75;;
75718;SDS011;64340;48.534;-3.036;2022-12-26T07:12:43;3.00;;;0.55;;
75718;SDS011;64340;48.534;-3.036;2022-12-26T07:15:09;2.95;;;0.65;;
75718;SDS011;64340;48.534;-3.036;2022-12-26T07:17:35;3.88;;;0.60;;
75718;SDS011;64340;48.534;-3.036;2022-12-26T07:20:02;2.30;;;0.28;;
75718;SDS011;64340;48.534;-3.036;2022-12-26T07:22:29;2.38;;;0.50;;
75718;SDS011;64340;48.534;-3.036;2022-12-26T07:24:55;1.95;;;0.50;;
75718;SDS011;64340;48.534;-3.036;2022-12-26T07:27:20;3.70;;;0.50;;
75718;SDS011;64340;48.534;-3.036;2022-12-26T07:29:46;2.20;;;0.43;;
75718;SDS011;64340;48.534;-3.036;2022-12-26T07:32:12;4.45;;;0.65;;
75718;SDS011;64340;48.534;-3.036;2022-12-26T07:34:38;2.45;;;0.85;;
75718;SDS011;64340;48.534;-3.036;2022-12-26T07:37:05;1.42;;;0.30;;
75718;SDS011;64340;48.534;-3.036;2022-12-26T07:39:30;2.75;;;0.50;;
75718;SDS011;64340;48.534;-3.036;2022-12-26T07:41:56;2.28;;;0.50;;
75718;SDS011;64340;48.534;-3.036;2022-12-26T07:44:22;2.22;;;0.43;;
75718;SDS011;64340;48.534;-3.036;2022-12-26T07:46:55;2.13;;;0.30;;
75718;SDS011;64340;48.534;-3.036;2022-12-26T07:49:22;3.00;;;0.45;;
75718;SDS011;64340;48.534;-3.036;2022-12-26T07:51:48;2.75;;;0.40;;
75718;SDS011;64340;48.534;-3.036;2022-12-26T07:54:14;3.85;;;0.50;;
75718;SDS011;64340;48.534;-3.036;2022-12-26T07:56:40;2.60;;;0.43;;
75718;SDS011;64340;48.534;-3.036;2022-12-26T07:59:09;1.38;;;0.32;;
75718;SDS011;64340;48.534;-3.036;2022-12-26T08:01:40;1.77;;;0.40;;
75718;SDS011;64340;48.534;-3.036;2022-12-26T08:04:06;1.48;;;0.40;;
75718;SDS011;64340;48.534;-3.036;2022-12-26T08:06:32;2.15;;;0.40;;
75718;SDS011;64340;48.534;-3.036;2022-12-26T08:08:58;1.27;;;0.32;;
75718;SDS011;64340;48.534;-3.036;2022-12-26T08:11:24;2.00;;;0.40;;
75718;SDS011;64340;48.534;-3.036;2022-12-26T08:13:50;2.10;;;0.50;;
75718;SDS011;64340;48.534;-3.036;2022-12-26T08:16:16;2.47;;;0.73;;
75718;SDS011;64340;48.534;-3.036;2022-12-26T08:18:42;4.18;;;0.68;;
75718;SDS011;64340;48.534;-3.036;2022-12-26T08:21:09;2.58;;;0.55;;
75718;SDS011;64340;48.534;-3.036;2022-12-26T08:23:35;1.50;;;0.47;;
75718;SDS011;64340;48.534;-3.036;2022-12-26T08:26:08;4.20;;;1.10;;
75718;SDS011;64340;48.534;-3.036;2022-12-26T08:28:36;0.93;;;0.32;;
75718;SDS011;64340;48.534;-3.036;2022-12-26T08:31:06;2.67;;;0.35;;
75718;SDS011;64340;48.534;-3.036;2022-12-26T08:33:33;4.57;;;0.73;;
75718;SDS011;64340;48.534;-3.036;2022-12-26T08:36:07;2.67;;;0.40;;
75718;SDS011;64340;48.534;-3.036;2022-12-26T08:41:00;3.95;;;0.60;;
75718;SDS011;64340;48.534;-3.036;2022-12-26T08:43:26;1.65;;;0.50;;
75718;SDS011;64340;48.534;-3.036;2022-12-26T08:46:02;3.78;;;0.75;;
75718;SDS011;64340;48.534;-3.036;2022-12-26T08:48:33;2.05;;;0.60;;
75718;SDS011;64340;48.534;-3.036;2022-12-26T08:51:03;5.22;;;0.80;;
75718;SDS011;64340;48.534;-3.036;2022-12-26T08:53:35;2.65;;;0.93;;
75718;SDS011;64340;48.534;-3.036;2022-12-26T08:56:02;3.22;;;0.63;;
75718;SDS011;64340;48.534;-3.036;2022-12-26T08:58:29;2.53;;;0.70;;
75718;SDS011;64340;48.534;-3.036;2022-12-26T09:01:04;2.90;;;0.90;;
75718;SDS011;64340;48.534;-3.036;2022-12-26T09:03:37;3.50;;;0.60;;
75718;SDS011;64340;48.534;-3.036;2022-12-26T09:06:04;4.45;;;0.90;;
75718;SDS011;64340;48.534;-3.036;2022-12-26T09:08:30;6.10;;;0.82;;
75718;SDS011;64340;48.534;-3.036;2022-12-26T09:11:17;5.15;;;1.48;;
75718;SDS011;64340;48.534;-3.036;2022-12-26T09:13:45;1.67;;;0.52;;
75718;SDS011;64340;48.534;-3.036;2022-12-26T09:16:21;2.45;;;0.50;;
75718;SDS011;64340;48.534;-3.036;2022-12-26T09:18:54;4.32;;;0.88;;
75718;SDS011;64340;48.534;-3.036;2022-12-26T09:21:21;2.10;;;0.65;;
75718;SDS011;64340;48.534;-3.036;2022-12-26T09:23:47;7.35;;;1.52;;
75718;SDS011;64340;48.534;-3.036;2022-12-26T09:26:17;4.82;;;1.13;;
75718;SDS011;64340;48.534;-3.036;2022-12-26T09:28:44;5.75;;;1.10;;
75718;SDS011;64340;48.534;-3.036;2022-12-26T09:31:14;4.00;;;1.20;;
75718;SDS011;64340;48.534;-3.036;2022-12-26T09:33:41;3.22;;;1.02;;
75718;SDS011;64340;48.534;-3.036;2022-12-26T09:36:09;3.45;;;1.13;;
75718;SDS011;64340;48.534;-3.036;2022-12-26T09:38:40;4.53;;;1.23;;
75718;SDS011;64340;48.534;-3.036;2022-12-26T09:49:16;4.13;;;1.27;;
75718;SDS011;64340;48.534;-3.036;2022-12-26T09:51:46;5.22;;;1.00;;
75718;SDS011;64340;48.534;-3.036;2022-12-26T09:57:07;6.18;;;1.30;;
75718;SDS011;64340;48.534;-3.036;2022-12-26T09:59:50;4.90;;;1.10;;
75718;SDS011;64340;48.534;-3.036;2022-12-26T10:02:25;3.45;;;1.05;;
75718;SDS011;64340;48.534;-3.036;2022-12-26T10:04:52;7.28;;;1.63;;
75718;SDS011;64340;48.534;-3.036;2022-12-26T10:07:20;4.50;;;1.33;;
75718;SDS011;64340;48.534;-3.036;2022-12-26T10:15:26;6.10;;;1.70;;
75718;SDS011;64340;48.534;-3.036;2022-12-26T10:26:39;10.50;;;2.47;;
75718;SDS011;64340;48.534;-3.036;2022-12-26T10:34:24;6.40;;;2.10;;
75718;SDS011;64340;48.534;-3.036;2022-12-26T10:39:33;5.85;;;2.00;;
75718;SDS011;64340;48.534;-3.036;2022-12-26T10:42:25;4.80;;;1.85;;
75718;SDS011;64340;48.534;-3.036;2022-12-26T10:44:58;5.70;;;1.50;;
75718;SDS011;64340;48.534;-3.036;2022-12-26T10:47:40;6.93;;;1.67;;
75718;SDS011;64340;48.534;-3.036;2022-12-26T10:50:43;7.65;;;1.70;;
75718;SDS011;64340;48.534;-3.036;2022-12-26T10:53:02;5.93;;;1.98;;
75718;SDS011;64340;48.534;-3.036;2022-12-26T10:55:31;4.03;;;1.45;;
75718;SDS011;64340;48.534;-3.036;2022-12-26T11:00:44;7.30;;;1.70;;
75718;SDS011;64340;48.534;-3.036;2022-12-26T11:03:11;3.85;;;1.58;;
75718;SDS011;64340;48.534;-3.036;2022-12-26T11:05:56;4.65;;;1.23;;
75718;SDS011;64340;48.534;-3.036;2022-12-26T11:08:47;5.75;;;1.50;;
75718;SDS011;64340;48.534;-3.036;2022-12-26T11:16:36;6.57;;;1.70;;
75718;SDS011;64340;48.534;-3.036;2022-12-26T11:19:04;4.63;;;1.25;;
75718;SDS011;64340;48.534;-3.036;2022-12-26T11:21:30;4.18;;;1.33;;
75718;SDS011;64340;48.534;-3.036;2022-12-26T11:26:32;4.72;;;1.20;;
75718;SDS011;64340;48.534;-3.036;2022-12-26T11:34:30;4.72;;;1.48;;
75718;SDS011;64340;48.534;-3.036;2022-12-26T11:36:59;7.47;;;1.38;;
75718;SDS011;64340;48.534;-3.036;2022-12-26T11:39:32;5.65;;;1.30;;
75718;SDS011;64340;48.534;-3.036;2022-12-26T11:42:10;10.68;;;2.20;;
75718;SDS011;64340;48.534;-3.036;2022-12-26T11:44:42;7.05;;;2.33;;
75718;SDS011;64340;48.534;-3.036;2022-12-26T11:47:10;6.07;;;2.42;;
75718;SDS011;64340;48.534;-3.036;2022-12-26T11:55:01;6.75;;;1.70;;
75718;SDS011;64340;48.534;-3.036;2022-12-26T11:58:17;7.45;;;1.35;;
75718;SDS011;64340;48.534;-3.036;2022-12-26T12:03:30;8.32;;;1.40;;
75718;SDS011;64340;48.534;-3.036;2022-12-26T12:14:45;8.65;;;2.03;;
75718;SDS011;64340;48.534;-3.036;2022-12-26T12:17:23;8.98;;;2.20;;
75718;SDS011;64340;48.534;-3.036;2022-12-26T12:36:00;44.72;;;30.05;;
75718;SDS011;64340;48.534;-3.036;2022-12-26T12:41:32;6.32;;;2.70;;
75718;SDS011;64340;48.534;-3.036;2022-12-26T12:44:12;57.58;;;39.80;;
75718;SDS011;64340;48.534;-3.036;2022-12-26T12:49:36;161.80;;;121.40;;
75718;SDS011;64340;48.534;-3.036;2022-12-26T12:54:56;248.63;;;171.15;;
75718;SDS011;64340;48.534;-3.036;2022-12-26T13:00:28;283.52;;;211.73;;
75718;SDS011;64340;48.534;-3.036;2022-12-26T13:06:09;313.90;;;215.30;;
75718;SDS011;64340;48.534;-3.036;2022-12-26T13:11:23;85.53;;;65.68;;
75718;SDS011;64340;48.534;-3.036;2022-12-26T13:14:04;252.93;;;156.77;;
75718;SDS011;64340;48.534;-3.036;2022-12-26T13:16:43;5.07;;;1.70;;
75718;SDS011;64340;48.534;-3.036;2022-12-26T13:19:42;5.80;;;4.47;;
75718;SDS011;64340;48.534;-3.036;2022-12-26T13:22:12;6.13;;;1.40;;
75718;SDS011;64340;48.534;-3.036;2022-12-26T13:24:44;4.05;;;3.30;;
75718;SDS011;64340;48.534;-3.036;2022-12-26T13:30:11;4.90;;;1.30;;
75718;SDS011;64340;48.534;-3.036;2022-12-26T13:32:39;6.47;;;1.75;;
75718;SDS011;64340;48.534;-3.036;2022-12-26T13:35:05;7.30;;;1.80;;
75718;SDS011;64340;48.534;-3.036;2022-12-26T13:37:52;9.95;;;3.65;;
75718;SDS011;64340;48.534;-3.036;2022-12-26T13:40:23;4.78;;;1.83;;
75718;SDS011;64340;48.534;-3.036;2022-12-26T13:42:56;6.30;;;2.38;;
75718;SDS011;64340;48.534;-3.036;2022-12-26T13:45:49;3.20;;;1.50;;
75718;SDS011;64340;48.534;-3.036;2022-12-26T13:51:00;7.03;;;2.13;;
75718;SDS011;64340;48.534;-3.036;2022-12-26T13:53:30;5.38;;;1.63;;
75718;SDS011;64340;48.534;-3.036;2022-12-26T13:56:01;6.30;;;2.42;;
75718;SDS011;64340;48.534;-3.036;2022-12-26T14:01:42;8.00;;;2.95;;
75718;SDS011;64340;48.534;-3.036;2022-12-26T14:23:42;8.50;;;3.47;;
75718;SDS011;64340;48.534;-3.036;2022-12-26T14:36:18;7.30;;;2.58;;
75718;SDS011;64340;48.534;-3.036;2022-12-26T14:39:03;12.77;;;11.38;;
75718;SDS011;64340;48.534;-3.036;2022-12-26T14:44:50;5.45;;;1.48;;
75718;SDS011;64340;48.534;-3.036;2022-12-26T14:47:41;5.10;;;1.38;;
75718;SDS011;64340;48.534;-3.036;2022-12-26T15:36:46;5.80;;;1.60;;
75718;SDS011;64340;48.534;-3.036;2022-12-26T15:39:26;5.57;;;1.90;;
75718;SDS011;64340;48.534;-3.036;2022-12-26T15:45:07;6.85;;;1.73;;
75718;SDS011;64340;48.534;-3.036;2022-12-26T15:51:06;3.83;;;1.48;;
75718;SDS011;64340;48.534;-3.036;2022-12-26T16:01:56;5.43;;;3.25;;
75718;SDS011;64340;48.534;-3.036;2022-12-26T16:04:33;6.30;;;3.17;;
75718;SDS011;64340;48.534;-3.036;2022-12-26T16:09:51;136.68;;;98.82;;
75718;SDS011;64340;48.534;-3.036;2022-12-26T16:17:36;427.65;;;321.67;;
75718;SDS011;64340;48.534;-3.036;2022-12-26T16:20:19;489.38;;;358.52;;
75718;SDS011;64340;48.534;-3.036;2022-12-26T16:23:13;406.92;;;280.67;;
75718;SDS011;64340;48.534;-3.036;2022-12-26T16:25:47;450.25;;;319.55;;
75718;SDS011;64340;48.534;-3.036;2022-12-26T16:28:14;549.03;;;416.30;;
75718;SDS011;64340;48.534;-3.036;2022-12-26T16:30:48;437.70;;;310.52;;
75718;SDS011;64340;48.534;-3.036;2022-12-26T16:33:13;308.17;;;229.60;;
75718;SDS011;64340;48.534;-3.036;2022-12-26T16:35:39;274.33;;;190.00;;
75718;SDS011;64340;48.534;-3.036;2022-12-26T16:38:12;484.60;;;371.70;;
75718;SDS011;64340;48.534;-3.036;2022-12-26T16:40:43;518.58;;;366.98;;
75718;SDS011;64340;48.534;-3.036;2022-12-26T16:45:44;557.58;;;382.92;;
75718;SDS011;64340;48.534;-3.036;2022-12-26T16:48:13;489.98;;;359.85;;
75718;SDS011;64340;48.534;-3.036;2022-12-26T16:53:14;589.92;;;401.88;;
75718;SDS011;64340;48.534;-3.036;2022-12-26T16:56:13;92.03;;;65.45;;
75718;SDS011;64340;48.534;-3.036;2022-12-26T16:58:52;2.03;;;0.90;;
75718;SDS011;64340;48.534;-3.036;2022-12-26T17:01:46;3.40;;;0.98;;
75718;SDS011;64340;48.534;-3.036;2022-12-26T17:04:24;4.55;;;1.25;;
75718;SDS011;64340;48.534;-3.036;2022-12-26T17:06:56;4.03;;;0.80;;
75718;SDS011;64340;48.534;-3.036;2022-12-26T17:09:23;2.15;;;0.85;;
75718;SDS011;64340;48.534;-3.036;2022-12-26T17:11:56;5.32;;;1.83;;
75718;SDS011;64340;48.534;-3.036;2022-12-26T17:14:35;2.92;;;1.52;;
75718;SDS011;64340;48.534;-3.036;2022-12-26T17:17:09;6.05;;;5.18;;
75718;SDS011;64340;48.534;-3.036;2022-12-26T17:22:22;6.07;;;1.20;;
75718;SDS011;64340;48.534;-3.036;2022-12-26T17:35:34;4.10;;;1.92;;
75718;SDS011;64340;48.534;-3.036;2022-12-26T17:38:01;4.22;;;1.63;;
75718;SDS011;64340;48.534;-3.036;2022-12-26T17:40:38;3.75;;;1.70;;
75718;SDS011;64340;48.534;-3.036;2022-12-26T17:43:06;6.15;;;5.53;;
75718;SDS011;64340;48.534;-3.036;2022-12-26T17:45:36;31.17;;;28.25;;
75718;SDS011;64340;48.534;-3.036;2022-12-26T17:48:04;19.13;;;16.95;;
75718;SDS011;64340;48.534;-3.036;2022-12-26T17:50:47;9.63;;;8.57;;
75718;SDS011;64340;48.534;-3.036;2022-12-26T17:53:25;77.97;;;58.35;;
75718;SDS011;64340;48.534;-3.036;2022-12-26T17:55:59;166.90;;;108.53;;
75718;SDS011;64340;48.534;-3.036;2022-12-26T17:58:28;107.30;;;72.28;;
75718;SDS011;64340;48.534;-3.036;2022-12-26T18:00:58;7.72;;;6.97;;
75718;SDS011;64340;48.534;-3.036;2022-12-26T18:03:25;38.75;;;29.77;;
75718;SDS011;64340;48.534;-3.036;2022-12-26T18:05:52;117.57;;;89.65;;
75718;SDS011;64340;48.534;-3.036;2022-12-26T18:08:36;296.63;;;220.18;;
75718;SDS011;64340;48.534;-3.036;2022-12-26T18:11:06;197.20;;;158.57;;
75718;SDS011;64340;48.534;-3.036;2022-12-26T18:13:34;110.38;;;77.03;;
75718;SDS011;64340;48.534;-3.036;2022-12-26T18:16:01;150.40;;;108.35;;
75718;SDS011;64340;48.534;-3.036;2022-12-26T18:18:41;78.43;;;52.20;;
75718;SDS011;64340;48.534;-3.036;2022-12-26T18:21:09;229.93;;;165.95;;
75718;SDS011;64340;48.534;-3.036;2022-12-26T18:23:38;68.57;;;44.95;;
75718;SDS011;64340;48.534;-3.036;2022-12-26T18:26:05;235.85;;;189.73;;
75718;SDS011;64340;48.534;-3.036;2022-12-26T18:28:57;205.13;;;171.25;;
75718;SDS011;64340;48.534;-3.036;2022-12-26T18:31:23;68.10;;;45.95;;
75718;SDS011;64340;48.534;-3.036;2022-12-26T18:33:51;249.25;;;192.07;;
75718;SDS011;64340;48.534;-3.036;2022-12-26T18:38:49;160.32;;;101.65;;
75718;SDS011;64340;48.534;-3.036;2022-12-26T18:41:15;409.67;;;271.08;;
75718;SDS011;64340;48.534;-3.036;2022-12-26T18:43:43;223.30;;;138.10;;
75718;SDS011;64340;48.534;-3.036;2022-12-26T18:46:16;342.23;;;210.32;;
75718;SDS011;64340;48.534;-3.036;2022-12-26T18:48:44;248.02;;;150.68;;
75718;SDS011;64340;48.534;-3.036;2022-12-26T18:51:11;249.40;;;142.85;;
75718;SDS011;64340;48.534;-3.036;2022-12-26T18:53:36;232.10;;;130.32;;
75718;SDS011;64340;48.534;-3.036;2022-12-26T18:56:02;105.35;;;60.20;;
75718;SDS011;64340;48.534;-3.036;2022-12-26T18:58:29;15.35;;;3.55;;
75718;SDS011;64340;48.534;-3.036;2022-12-26T19:00:56;11.98;;;3.00;;
75718;SDS011;64340;48.534;-3.036;2022-12-26T19:03:23;10.68;;;3.15;;
75718;SDS011;64340;48.534;-3.036;2022-12-26T19:05:49;88.13;;;60.47;;
75718;SDS011;64340;48.534;-3.036;2022-12-26T19:08:15;38.40;;;30.92;;
75718;SDS011;64340;48.534;-3.036;2022-12-26T19:10:41;21.25;;;4.50;;
75718;SDS011;64340;48.534;-3.036;2022-12-26T19:13:11;11.48;;;3.70;;
75718;SDS011;64340;48.534;-3.036;2022-12-26T19:15:38;26.90;;;15.35;;
75718;SDS011;64340;48.534;-3.036;2022-12-26T19:18:09;14.75;;;7.13;;
75718;SDS011;64340;48.534;-3.036;2022-12-26T19:20:35;17.10;;;11.32;;
75718;SDS011;64340;48.534;-3.036;2022-12-26T19:23:01;20.00;;;13.55;;
75718;SDS011;64340;48.534;-3.036;2022-12-26T19:25:26;22.15;;;14.90;;
75718;SDS011;64340;48.534;-3.036;2022-12-26T19:27:52;19.27;;;12.98;;
75718;SDS011;64340;48.534;-3.036;2022-12-26T19:30:19;16.92;;;12.52;;
75718;SDS011;64340;48.534;-3.036;2022-12-26T19:32:47;13.18;;;11.85;;
75718;SDS011;64340;48.534;-3.036;2022-12-26T19:35:15;18.92;;;12.15;;
75718;SDS011;64340;48.534;-3.036;2022-12-26T19:37:41;17.42;;;11.93;;
75718;SDS011;64340;48.534;-3.036;2022-12-26T19:40:08;15.70;;;10.70;;
75718;SDS011;64340;48.534;-3.036;2022-12-26T19:42:35;13.55;;;9.57;;